• Join FlightAware (Why Join?)
  • Login
  • US Flag 
01:39PM EDT


 

Airport Tracker/Info


-or-


 

Live Flight TrackerFlight Track Log ✈ UAL4679 ✈ 01-May-2013 ✈ KCLE - KMKE

Flight Track Log - Related Links

Times and Time Zones

All times are in EDT time to prevent confusion due to time zone crossing. See the UAL4679 flight status page for this flight to view local times or setup timezone preferences in your user account.

Time Position Orientation Groundspeed Altitude Reporting Facility
EDT Latitude Longitude Course Direction KTS MPH feet Rate Location/Type
08:05AM 41.3917 -81.8922 251° West 175 201 1,600  Level Cleveland Center
08:06AM 41.3853 -81.9172 251° West 185 213 2,400 1,980 Climbing Cleveland Center
08:07AM 41.3625 -82.0606 258° West 273 314 5,700 1,920 Climbing Cleveland Center
08:08AM 41.3531 -82.1489 262° West 273 314 7,600 2,040 Climbing Cleveland Center
08:09AM 41.3411 -82.2481 261° West 278 320 9,800 1,680 Climbing Cleveland Center
08:10AM 41.3269 -82.3611 261° West 298 343 11,000 1,080 Climbing Cleveland Center
08:11AM 41.3125 -82.4878 261° West 330 380 12,000 1,020 Climbing Cleveland Center
08:12AM 41.2956 -82.6200 260° West 360 414 13,100 1,200 Climbing Cleveland Center
08:13AM 41.2764 -82.7575 260° West 370 426 14,500 1,380 Climbing Cleveland Center
08:14AM 41.2611 -82.8953 262° West 377 434 15,900 1,380 Climbing Cleveland Center
08:15AM 41.3083 -83.0267 296° West 352 405 17,300 1,200 Climbing Cleveland Center
08:16AM 41.4072 -83.0858 336° Northwest 352 405 18,400 1,200 Climbing Cleveland Center
08:17AM 41.5000 -83.1394 337° Northwest 358 412 19,700 1,200 Climbing Cleveland Center
08:18AM 41.5986 -83.1961 337° Northwest 372 428 20,900 1,080 Climbing Cleveland Center
08:19AM 41.6975 -83.2531 337° Northwest 377 434 21,900 540 Climbing Cleveland Center
08:20AM 41.8022 -83.3158 336° Northwest 382 440 22,000  Climbing Cleveland Center
08:21AM 41.9133 -83.3792 337° Northwest 402 463 22,000  Level Cleveland Center
08:22AM 42.0264 -83.4483 336° Northwest 434 499 22,000  Level Cleveland Center
08:23AM 42.1094 -83.5417 320° Northwest 441 507 22,000  Level Cleveland Center
08:24AM 42.2061 -83.6697 316° Northwest 441 507 22,000  Level Cleveland Center
08:25AM 42.2947 -83.7861 316° Northwest 441 507 22,000  Level Cleveland Center
08:26AM 42.3831 -83.9003 316° Northwest 441 507 22,000  Level Cleveland Center
08:27AM 42.4694 -84.0147 316° Northwest 441 507 22,000  Level Cleveland Center
08:28AM 42.5578 -84.1294 316° Northwest 441 507 22,000  Level Cleveland Center
08:29AM 42.6439 -84.2417 316° Northwest 441 507 22,000  Level Cleveland Center
08:30AM 42.7197 -84.3450 315° West 441 507 22,000  Level Cleveland Center
08:31AM 42.8078 -84.4608 316° Northwest 436 502 22,000  Level Cleveland Center
08:33AM 42.9267 -84.6178 316° Northwest 428 493 22,000  Level Chicago Center
08:34AM 43.0097 -84.7331 315° West 426 490 22,000  Level Chicago Center
08:35AM 43.0939 -84.8469 315° West 427 491 22,000  Level Chicago Center
08:36AM 43.1425 -84.9886 295° West 419 482 22,000  Level Chicago Center
08:37AM 43.1486 -85.1478 273° West 419 482 22,000  Level Chicago Center
08:38AM 43.1528 -85.3378 272° West 418 481 22,000  Level Chicago Center
08:39AM 43.1572 -85.4964 272° West 419 482 22,000  Level Chicago Center
08:40AM 43.1611 -85.6550 272° West 420 483 22,000  Level Chicago Center
08:41AM 43.1653 -85.8133 272° West 421 484 22,000  Level Chicago Center
08:42AM 43.1683 -85.9700 272° West 422 486 22,000 -180 Level Chicago Center
08:43AM 43.1686 -86.1581 270° West 423 487 21,700 -1,020 Descending Chicago Center
08:44AM 43.1658 -86.3075 269° West 399 459 20,000 -1,680 Descending Chicago Center
08:45AM 43.1631 -86.4553 269° West 390 449 18,300 -1,620 Descending Chicago Center
08:46AM 43.1603 -86.5983 269° West 381 438 16,700 -1,620 Descending Chicago Center
08:47AM 43.1572 -86.7400 268° West 375 432 15,000 -1,320 Descending Chicago Center
08:48AM 43.1536 -86.9008 268° West 354 407 14,000 -780 Descending Chicago Center
08:49AM 43.1503 -87.0256 268° West 327 376 13,500 -1,020 Descending Chicago Center
08:50AM 43.1283 -87.1258 253° West 280 322 11,900 -1,560 Descending Chicago Center
08:51AM 43.1061 -87.2208 252° West 265 305 10,400 -1,500 Descending Chicago Center
08:52AM 43.0856 -87.3075 252° West 244 281 8,900 -1,500 Descending Chicago Center
08:53AM 43.0625 -87.4022 252° West 237 273 7,400 -1,380 Descending Chicago Center
08:54AM 43.0411 -87.4939 252° West 250 288 6,100 -1,200 Descending Chicago Center
08:55AM 43.0197 -87.5817 252° West 245 282 5,000 -1,080 Descending Chicago Center
08:56AM 43.0017 -87.6575 252° West 216 249 4,000 -1,080 Descending Chicago Center
08:58AM 42.9853 -87.7236 251° West 187 215 2,800 -1,020 Descending Chicago Center
08:59AM 42.9694 -87.7933 253° West 175 201 2,000 -660 Descending Chicago Center
09:00AM 42.9581 -87.8386 251° West 144 166 1,500 -360 Descending Chicago Center
09:01AM 42.9489 -87.8742 251° West 139 160 1,300 -240 Descending Chicago Center
09:03AM 42.9333 -87.8833 236° Southwest  Level FlightAware Approximate